• Join FlightAware (Why Join?)
  • Login
  • US Flag 
Rudolph Flight #1: Arrived! 
01:06AM EST


 

Airport Tracker/Info


-or-


 

Live Flight TrackerFlight Track Log ✈ FLG4211 ✈ 05-May-2013 ✈ KCIU - KDTW

Flight Track Log - Related Links

Times and Time Zones

All times are in EDT time to prevent confusion due to time zone crossing. See the FLG4211 flight status page for this flight to view local times or setup timezone preferences in your user account.

Time Position Orientation Groundspeed Altitude Reporting Facility
EDT Latitude Longitude Course Direction KTS MPH feet Rate Location/Type
01:47PM 46.1667 -84.4500 180° South 190 219 4,300  Level Toronto Center
01:48PM 46.1000 -84.4500 180° South 250 288 7,100 2,940 Climbing Toronto Center
01:49PM 45.9126 -84.5655 191° South  Level FlightAware Approximate
01:49PM 46.0167 -84.4333 172° South 270 311 10,200  Level Toronto Center
01:50PM 45.8281 -84.5899 192° South  Level FlightAware Approximate
01:50PM 45.9333 -84.4333 180° South 320 368 12,200  Level Toronto Center
01:51PM 45.7438 -84.6152 192° South  Level FlightAware Approximate
01:51PM 45.8333 -84.4167 173° South 330 380 14,500  Level Toronto Center
01:52PM 45.6531 -84.6409 190° South  Level FlightAware Approximate
01:52PM 45.8111 -84.4106 169° South 340 391 15,600  Level Minneapolis Center
01:53PM 45.7053 -84.3936 174° South 356 410 17,600 1,740 Climbing Minneapolis Center
01:54PM 45.6028 -84.3783 174° South 366 421 19,200 1,500 Climbing Minneapolis Center
01:55PM 45.4994 -84.3636 174° South 368 423 20,700 1,260 Climbing Minneapolis Center
01:56PM 45.3925 -84.3475 174° South 378 435 21,900 1,200 Climbing Minneapolis Center
01:57PM 45.2819 -84.3289 173° South 391 450 23,300 1,320 Climbing Minneapolis Center
01:58PM 45.1717 -84.3142 175° South 396 456 24,700 1,320 Climbing Minneapolis Center
01:59PM 45.0619 -84.2958 173° South 396 456 26,100 1,080 Climbing Minneapolis Center
02:00PM 44.9311 -84.2783 175° South 393 452 27,000 420 Climbing Minneapolis Center
02:01PM 44.8167 -84.2622 174° South 404 465 27,000  Level Minneapolis Center
02:02PM 44.6969 -84.2433 174° South 421 484 27,000  Level Minneapolis Center
02:03PM 44.5792 -84.2275 175° South 425 489 27,000  Level Minneapolis Center
02:04PM 44.4636 -84.2100 174° South 420 483 27,000  Level Minneapolis Center
02:05PM 44.3478 -84.1939 174° South 418 481 27,000 -480 Level Minneapolis Center
02:06PM 44.2325 -84.1781 174° South 417 480 26,100 -1,020 Descending Minneapolis Center
02:07PM 44.0911 -84.1569 174° South 425 489 24,900 -1,080 Descending Minneapolis Center
02:08PM 43.9725 -84.1394 174° South 427 491 23,900 -960 Descending Minneapolis Center
02:09PM 43.8464 -84.1225 174° South 425 489 23,000 -480 Descending Minneapolis Center
02:10PM 43.7300 -84.1069 174° South 423 487 23,000 -180 Level Minneapolis Center
02:11PM 43.6192 -84.0900 174° South 409 471 22,700 -600 Descending Minneapolis Center
02:12PM 43.5536 -84.0778 172° South 417 480 22,100 -1,200 Descending Cleveland Center
02:13PM 43.4425 -84.0344 164° South 410 472 20,900 -1,200 Descending Cleveland Center
02:14PM 43.3664 -83.9986 161° South 394 453 19,800 -1,440 Descending Cleveland Center
02:15PM 43.2428 -83.9464 163° South 387 445 18,100 -1,560 Descending Cleveland Center
02:16PM 43.1461 -83.8983 160° South 375 432 16,700 -1,440 Descending Cleveland Center
02:17PM 43.0514 -83.8564 162° South 370 426 15,300 -1,560 Descending Cleveland Center
02:17PM 43.0000 -83.8336 162° South 351 404 14,300 -1,440 Descending Cleveland Center
02:18PM 42.9611 -83.8147 160° South 359 413 13,900 -1,320 Descending Cleveland Center
02:18PM 42.9242 -83.7900 154° Southeast 349 402 13,200 -1,500 Descending Cleveland Center
02:19PM 42.8708 -83.7589 157° South 354 407 12,400 -1,320 Descending Cleveland Center
02:19PM 42.8442 -83.7436 157° South 348 400 12,000 -420 Descending Cleveland Center
02:20PM 42.7847 -83.7067 155° Southeast 349 402 12,000  Level Cleveland Center
02:20PM 42.7561 -83.6881 154° Southeast 345 397 12,000  Level Cleveland Center
02:21PM 42.6986 -83.6542 157° South 349 402 12,000  Level Cleveland Center
02:21PM 42.6575 -83.6325 159° South 344 396 12,000  Level Cleveland Center
02:22PM 42.6081 -83.6019 156° South 349 402 12,000  Level Cleveland Center
02:22PM 42.5878 -83.5894 156° South 343 395 12,000  Level Cleveland Center
02:23PM 42.5219 -83.5497 156° South 349 402 12,000  Level Cleveland Center
02:23PM 42.4933 -83.5344 159° South 340 391 12,000 -120 Level Cleveland Center
02:24PM 42.4378 -83.4981 154° Southeast 344 396 11,900 -120 Descending Cleveland Center
02:24PM 42.4133 -83.4828 155° Southeast 280 322 11,900  Level Cleveland Center
02:25PM 42.3761 -83.4697 165° South 306 352 11,900  Level Cleveland Center
02:25PM 42.3386 -83.4681 178° South 229 264 11,900 -600 Level Cleveland Center
02:26PM 42.3117 -83.4642 174° South 254 292 11,300 -1,860 Descending Cleveland Center
02:26PM 42.2822 -83.4656 182° South 226 260 10,200 -2,100 Descending Cleveland Center
02:27PM 42.2547 -83.4839 206° Southwest 228 262 9,200 -2,100 Descending Cleveland Center
02:27PM 42.2333 -83.5025 213° Southwest 219 252 8,300 -840 Descending Cleveland Center
02:28PM 42.1739 -83.5475 209° Southwest 216 249 8,000 -600 Descending Cleveland Center
02:29PM 42.1292 -83.5875 214° Southwest 211 243 7,200 -1,500 Descending Cleveland Center
02:30PM 42.0814 -83.5797 173° South 195 224 5,100 -1,320 Descending Cleveland Center
02:31PM 42.0556 -83.5308 125° Southeast 172 198 4,700 -840 Descending Cleveland Center
02:32PM 42.0861 -83.4764 53° Northeast 177 204 3,500 -1,260 Descending Cleveland Center
02:33PM 42.1328 -83.4392 31° Northeast 177 204 2,100 -1,080 Descending Cleveland Center
02:34PM 42.1733 -83.4047 32° Northeast 139 160 1,300 -840 Descending Cleveland Center